createdAt,value
2022-11-13T00:01:09.124Z,101739.88
2022-11-13T00:06:59.357Z,101743.91
2022-11-13T00:12:48.883Z,101724.50
2022-11-13T00:18:37.269Z,101726.84
2022-11-13T00:24:24.802Z,101718.06
2022-11-13T00:30:19.069Z,101720.94
2022-11-13T00:36:10.316Z,101700.16
2022-11-13T00:41:58.438Z,101706.25
2022-11-13T00:47:47.895Z,101699.31
2022-11-13T00:53:35.435Z,101691.03
2022-11-13T00:59:23.466Z,101682.75
2022-11-13T01:05:13.015Z,101679.88
2022-11-13T01:11:01.435Z,101677.69
2022-11-13T01:16:49.856Z,101681.75
2022-11-13T01:22:38.805Z,101686.63
2022-11-13T01:28:26.734Z,101684.59
2022-11-13T01:34:14.600Z,101686.28
2022-11-13T01:40:04.625Z,101687.63
2022-11-13T01:46:10.122Z,101674.75
2022-11-13T01:51:59.722Z,101676.44
2022-11-13T01:57:49.851Z,101683.84
2022-11-13T02:03:37.606Z,101672.00
2022-11-13T02:09:28.352Z,101669.00
2022-11-13T02:15:18.911Z,101672.53
2022-11-13T02:21:15.204Z,101663.22
2022-11-13T02:27:09.805Z,101662.03
2022-11-13T02:32:58.737Z,101669.78
2022-11-13T02:38:47.439Z,101651.69
2022-11-13T02:44:36.924Z,101645.25
2022-11-13T02:50:24.428Z,101645.94
2022-11-13T02:56:12.520Z,101635.94
2022-11-13T03:02:01.823Z,101646.44
2022-11-13T03:07:49.507Z,101641.88
2022-11-13T03:13:37.976Z,101632.75
2022-11-13T03:19:27.439Z,101637.31
2022-11-13T03:25:15.795Z,101635.13
2022-11-13T03:31:04.481Z,101638.31
2022-11-13T03:36:53.975Z,101635.06
2022-11-13T03:42:41.433Z,101619.50
2022-11-13T03:48:29.674Z,101631.34
2022-11-13T03:54:19.162Z,101613.06
2022-11-13T04:00:07.628Z,101614.38
2022-11-13T04:05:55.447Z,101629.25
2022-11-13T04:11:44.930Z,101624.50
2022-11-13T04:17:32.705Z,101629.38
2022-11-13T04:23:20.449Z,101627.16
2022-11-13T04:29:09.951Z,101634.25
2022-11-13T04:34:57.524Z,101629.69
2022-11-13T04:40:45.858Z,101637.63
2022-11-13T04:46:34.702Z,101645.09
2022-11-13T04:52:22.659Z,101652.19
2022-11-13T04:58:10.522Z,101646.59
2022-11-13T05:03:59.746Z,101649.47
2022-11-13T05:09:47.467Z,101644.72
2022-11-13T05:15:35.724Z,101655.41
2022-11-13T05:21:25.171Z,101654.38
2022-11-13T05:27:17.092Z,101655.03
2022-11-13T05:33:05.588Z,101654.00
2022-11-13T05:38:54.707Z,101656.19
2022-11-13T05:44:42.594Z,101648.00
2022-11-13T05:50:30.691Z,101649.34
2022-11-13T05:56:22.172Z,101647.28
2022-11-13T06:02:09.803Z,101655.34
2022-11-13T06:07:57.507Z,101643.81
2022-11-13T06:13:48.728Z,101648.50
2022-11-13T06:19:36.652Z,101647.75
2022-11-13T06:25:24.527Z,101650.75
2022-11-13T06:31:15.711Z,101649.19
2022-11-13T06:37:03.694Z,101645.75
2022-11-13T06:42:51.697Z,101642.84
2022-11-13T06:48:41.064Z,101639.41
2022-11-13T06:54:28.733Z,101628.03
2022-11-13T07:00:17.484Z,101621.22
2022-11-13T07:06:09.037Z,101610.84
2022-11-13T07:11:56.491Z,101609.25
2022-11-13T07:17:44.588Z,101611.03
2022-11-13T07:23:34.312Z,101608.97
2022-11-13T07:29:22.503Z,101611.59
2022-11-13T07:35:11.482Z,101615.44
2022-11-13T07:41:01.259Z,101612.16
2022-11-13T07:46:48.532Z,101624.31
2022-11-13T07:52:36.616Z,101617.69
2022-11-13T07:58:26.041Z,101622.38
2022-11-13T08:04:13.443Z,101619.47
2022-11-13T08:10:02.012Z,101626.19
2022-11-13T08:15:51.039Z,101629.81
2022-11-13T08:21:38.580Z,101616.25
2022-11-13T08:27:26.934Z,101613.03
2022-11-13T08:33:16.126Z,101613.56
2022-11-13T08:39:04.774Z,101607.47
2022-11-13T08:44:52.528Z,101603.94
2022-11-13T08:50:42.019Z,101605.13
2022-11-13T08:56:29.730Z,101591.97
2022-11-13T09:02:17.547Z,101592.56
2022-11-13T09:08:07.628Z,101583.44
2022-11-13T09:13:56.031Z,101567.38
2022-11-13T09:19:43.399Z,101556.50
2022-11-13T09:25:37.881Z,101550.47
2022-11-13T09:31:26.439Z,101548.41
2022-11-13T09:37:15.695Z,101551.34
2022-11-13T09:43:07.321Z,101559.28
2022-11-13T09:48:58.568Z,101555.72
2022-11-13T09:54:46.756Z,101552.63
2022-11-13T10:00:36.571Z,101541.72
2022-11-13T10:06:30.957Z,101548.00
2022-11-13T10:12:18.997Z,101541.09
2022-11-13T10:18:14.383Z,101537.69
2022-11-13T10:24:11.756Z,101518.19
2022-11-13T10:30:10.144Z,101518.88
2022-11-13T10:36:08.747Z,101519.44
2022-11-13T10:41:57.279Z,101520.03
2022-11-13T10:48:03.776Z,101537.38
2022-11-13T10:53:55.508Z,101526.72
2022-11-13T10:59:46.160Z,101520.06
2022-11-13T11:05:33.735Z,101506.88
2022-11-13T11:11:40.529Z,101492.03
2022-11-13T11:17:34.215Z,101485.75
2022-11-13T11:23:29.337Z,101487.41
2022-11-13T11:29:27.864Z,101470.38
2022-11-13T11:35:20.380Z,101462.97
2022-11-13T11:41:16.565Z,101460.81
2022-11-13T11:47:12.424Z,101454.50
2022-11-13T11:53:06.935Z,101456.78
2022-11-13T11:59:10.055Z,101454.78
2022-11-13T12:05:18.587Z,101460.66
2022-11-13T12:11:16.656Z,101438.34
2022-11-13T12:17:21.080Z,101438.09
2022-11-13T12:23:24.605Z,101438.16
2022-11-13T12:29:26.249Z,101426.53
2022-11-13T12:35:18.823Z,101440.63
2022-11-13T12:41:17.619Z,101445.81
2022-11-13T12:47:05.872Z,101452.31
2022-11-13T12:53:01.629Z,101443.59
2022-11-13T13:05:20.095Z,101449.78
2022-11-13T13:11:21.014Z,101457.00
2022-11-13T13:17:19.312Z,101452.13
2022-11-13T13:23:08.842Z,101447.59
2022-11-13T13:28:58.108Z,101458.41
2022-11-13T13:34:56.927Z,101453.00
2022-11-13T13:40:59.108Z,101441.47
2022-11-13T13:46:46.543Z,101449.25
2022-11-13T13:52:37.957Z,101449.41
2022-11-13T13:58:31.230Z,101454.00
2022-11-13T14:04:21.355Z,101475.94
2022-11-13T14:10:19.072Z,101466.28
2022-11-13T14:16:08.234Z,101465.97
2022-11-13T14:22:00.402Z,101464.22
2022-11-13T14:27:50.371Z,101453.44
2022-11-13T14:33:44.475Z,101453.91
2022-11-13T14:39:35.689Z,101452.81
2022-11-13T14:45:27.188Z,101457.59
2022-11-13T14:51:24.500Z,101454.59
2022-11-13T14:57:15.284Z,101464.19
2022-11-13T15:03:07.242Z,101465.78
2022-11-13T15:08:58.175Z,101465.06
2022-11-13T15:14:46.697Z,101472.13
2022-11-13T15:20:36.025Z,101476.38
2022-11-13T15:26:24.043Z,101478.84
2022-11-13T15:32:12.938Z,101484.13
2022-11-13T15:38:01.866Z,101468.00
2022-11-13T15:43:51.892Z,101486.03
2022-11-13T15:49:46.934Z,101485.97
2022-11-13T15:55:42.513Z,101487.28
2022-11-13T16:01:31.359Z,101490.38
2022-11-13T16:07:23.242Z,101491.16
2022-11-13T16:13:12.381Z,101485.72
2022-11-13T16:19:01.434Z,101498.00
2022-11-13T16:24:49.712Z,101485.56
2022-11-13T16:30:38.818Z,101493.88
2022-11-13T16:36:27.659Z,101500.06
2022-11-13T16:42:16.795Z,101514.84
2022-11-13T16:48:06.503Z,101516.22
2022-11-13T16:53:54.570Z,101520.81
2022-11-13T16:59:42.574Z,101518.66
2022-11-13T17:05:31.843Z,101524.84
2022-11-13T17:11:19.983Z,101536.72
2022-11-13T17:17:12.064Z,101538.13
2022-11-13T17:23:01.759Z,101537.16
2022-11-13T17:28:49.836Z,101536.25
2022-11-13T17:34:37.745Z,101537.47
2022-11-13T17:40:26.940Z,101545.94
2022-11-13T17:46:16.188Z,101539.38
2022-11-13T17:52:03.471Z,101543.50
2022-11-13T17:57:53.242Z,101538.16
2022-11-13T18:03:40.908Z,101539.53
2022-11-13T18:09:28.434Z,101555.50
2022-11-13T18:15:17.548Z,101548.41
2022-11-13T18:21:22.411Z,101552.78
2022-11-13T18:27:12.431Z,101549.91
2022-11-13T18:33:01.760Z,101550.38
2022-11-13T18:38:49.604Z,101548.31
2022-11-13T18:44:37.734Z,101550.00
2022-11-13T18:50:27.785Z,101548.31
2022-11-13T18:56:17.574Z,101559.16
2022-11-13T19:02:06.018Z,101547.47
2022-11-13T19:07:54.840Z,101562.88
2022-11-13T19:13:44.068Z,101561.19
2022-11-13T19:19:31.769Z,101562.88
2022-11-13T19:25:20.862Z,101552.44
2022-11-13T19:31:09.105Z,101561.47
2022-11-13T19:36:56.742Z,101562.69
2022-11-13T19:42:45.848Z,101563.03
2022-11-13T19:48:34.037Z,101558.34
2022-11-13T19:54:22.652Z,101553.28
2022-11-13T20:00:14.060Z,101541.16
2022-11-13T20:06:02.495Z,101541.84
2022-11-13T20:11:50.857Z,101556.78
2022-11-13T20:17:40.025Z,101564.59
2022-11-13T20:23:27.738Z,101558.72
2022-11-13T20:29:15.695Z,101558.25
2022-11-13T20:35:05.157Z,101568.38
2022-11-13T20:40:53.570Z,101565.66
2022-11-13T20:46:41.416Z,101570.22
2022-11-13T20:52:30.010Z,101576.84
2022-11-13T20:58:17.739Z,101574.50
2022-11-13T21:04:05.775Z,101576.84
2022-11-13T21:09:54.904Z,101575.84
2022-11-13T21:15:42.453Z,101579.91
2022-11-13T21:21:29.493Z,101570.47
2022-11-13T21:27:17.808Z,101579.97
2022-11-13T21:33:06.156Z,101579.13
2022-11-13T21:38:55.707Z,101565.44
2022-11-13T21:44:43.732Z,101564.94
2022-11-13T21:50:31.516Z,101565.44
2022-11-13T21:56:19.952Z,101581.84
2022-11-13T22:02:11.353Z,101568.84
2022-11-13T22:07:58.697Z,101561.75
2022-11-13T22:13:46.601Z,101563.81
2022-11-13T22:19:36.506Z,101556.72
2022-11-13T22:25:24.525Z,101570.25
2022-11-13T22:31:15.960Z,101584.44
2022-11-13T22:37:04.781Z,101578.06
2022-11-13T22:42:55.738Z,101581.50
2022-11-13T22:48:46.373Z,101577.78
2022-11-13T22:54:36.048Z,101585.94
2022-11-13T23:00:23.738Z,101585.28
2022-11-13T23:06:12.239Z,101577.22
2022-11-13T23:12:01.835Z,101590.41
2022-11-13T23:17:49.470Z,101580.97
2022-11-13T23:23:38.145Z,101582.84
2022-11-13T23:29:26.778Z,101584.34
2022-11-13T23:41:15.429Z,101611.91
2022-11-13T23:47:04.887Z,101612.91
2022-11-13T23:52:52.442Z,101605.13
2022-11-13T23:58:40.611Z,101611.72
